createdAt,value
2022-09-04T00:00:38.019Z,990.84
2022-09-04T00:01:38.025Z,990.86
2022-09-04T00:02:37.977Z,990.85
2022-09-04T00:03:38.009Z,990.83
2022-09-04T00:04:38.057Z,990.86
2022-09-04T00:05:37.989Z,990.84
2022-09-04T00:06:37.959Z,990.90
2022-09-04T00:07:37.930Z,990.88
2022-09-04T00:08:37.939Z,990.86
2022-09-04T00:09:37.920Z,990.87
2022-09-04T00:10:37.915Z,990.89
2022-09-04T00:11:37.911Z,990.90
2022-09-04T00:12:38.857Z,990.92
2022-09-04T00:13:37.869Z,991.01
2022-09-04T00:14:37.861Z,990.99
2022-09-04T00:15:37.850Z,991.03
2022-09-04T00:16:37.895Z,991.01
2022-09-04T00:17:37.829Z,991.06
2022-09-04T00:18:37.809Z,991.05
2022-09-04T00:19:37.808Z,990.99
2022-09-04T00:20:37.800Z,990.98
2022-09-04T00:21:37.832Z,991.01
2022-09-04T00:22:37.809Z,990.98
2022-09-04T00:23:37.770Z,991.04
2022-09-04T00:24:37.775Z,991.02
2022-09-04T00:25:37.751Z,991.10
2022-09-04T00:26:37.763Z,991.06
2022-09-04T00:27:37.794Z,991.10
2022-09-04T00:28:37.709Z,991.12
2022-09-04T00:29:37.734Z,991.19
2022-09-04T00:30:37.720Z,991.17
2022-09-04T00:31:37.689Z,991.18
2022-09-04T00:32:37.689Z,991.15
2022-09-04T00:33:37.660Z,991.18
2022-09-04T00:34:37.660Z,991.19
2022-09-04T00:35:37.642Z,991.20
2022-09-04T00:36:37.665Z,991.18
2022-09-04T00:37:37.633Z,991.17
2022-09-04T00:38:37.647Z,991.17
2022-09-04T00:39:37.662Z,991.18
2022-09-04T00:40:37.620Z,991.20
2022-09-04T00:41:37.583Z,991.18
2022-09-04T00:42:37.581Z,991.24
2022-09-04T00:43:37.622Z,991.23
2022-09-04T00:44:37.540Z,991.28
2022-09-04T00:45:37.560Z,991.28
2022-09-04T00:46:37.549Z,991.27
2022-09-04T00:47:37.520Z,991.24
2022-09-04T00:48:37.530Z,991.27
2022-09-04T00:49:37.490Z,991.26
2022-09-04T00:50:37.530Z,991.23
2022-09-04T00:51:37.490Z,991.22
2022-09-04T00:52:37.494Z,991.24
2022-09-04T00:53:37.473Z,991.23
2022-09-04T00:54:37.481Z,991.27
2022-09-04T00:55:37.442Z,991.26
2022-09-04T00:56:37.443Z,991.25
2022-09-04T00:57:37.435Z,991.25
2022-09-04T00:58:37.412Z,991.29
2022-09-04T00:59:37.403Z,991.26
2022-09-04T01:00:37.431Z,991.27
2022-09-04T01:01:38.823Z,991.28
2022-09-04T01:02:37.391Z,991.29
2022-09-04T01:03:37.380Z,991.28
2022-09-04T01:04:37.381Z,991.32
2022-09-04T01:05:37.533Z,991.31
2022-09-04T01:06:37.329Z,991.34
2022-09-04T01:07:37.339Z,991.40
2022-09-04T01:08:37.313Z,991.37
2022-09-04T01:09:37.293Z,991.39
2022-09-04T01:10:37.326Z,991.37
2022-09-04T01:11:37.294Z,991.41
2022-09-04T01:12:37.274Z,991.38
2022-09-04T01:13:37.254Z,991.44
2022-09-04T01:14:37.260Z,991.42
2022-09-04T01:15:37.244Z,991.41
2022-09-04T01:16:37.371Z,991.47
2022-09-04T01:17:37.221Z,991.43
2022-09-04T01:18:37.210Z,991.44
2022-09-04T01:19:37.196Z,991.45
2022-09-04T01:20:37.183Z,991.43
2022-09-04T01:21:37.211Z,991.47
2022-09-04T01:22:37.203Z,991.46
2022-09-04T01:23:37.143Z,991.49
2022-09-04T01:24:37.155Z,991.52
2022-09-04T01:25:37.215Z,991.57
2022-09-04T01:26:37.124Z,991.58
2022-09-04T01:27:37.164Z,991.53
2022-09-04T01:28:37.124Z,991.57
2022-09-04T01:29:37.097Z,991.53
2022-09-04T01:30:37.084Z,991.58
2022-09-04T01:31:37.166Z,991.56
2022-09-04T01:32:37.077Z,991.54
2022-09-04T01:33:37.075Z,991.61
2022-09-04T01:34:37.043Z,991.56
2022-09-04T01:35:37.046Z,991.58
2022-09-04T01:36:37.027Z,991.65
2022-09-04T01:37:37.033Z,991.61
2022-09-04T01:38:37.004Z,991.64
2022-09-04T01:39:37.030Z,991.62
2022-09-04T01:40:36.988Z,991.66
2022-09-04T01:41:38.651Z,991.64
2022-09-04T01:42:36.988Z,991.65
2022-09-04T01:43:36.966Z,991.64
2022-09-04T01:44:36.970Z,991.65
2022-09-04T01:45:36.996Z,991.61
2022-09-04T01:46:36.931Z,991.60
2022-09-04T01:47:36.917Z,991.64
2022-09-04T01:48:36.932Z,991.63
2022-09-04T01:49:36.886Z,991.66
2022-09-04T01:50:36.897Z,991.65
2022-09-04T01:51:36.912Z,991.60
2022-09-04T01:52:36.923Z,991.66
2022-09-04T01:53:36.855Z,991.66
2022-09-04T01:54:36.877Z,991.65
2022-09-04T01:55:36.827Z,991.67
2022-09-04T01:56:36.836Z,991.65
2022-09-04T01:57:36.828Z,991.69
2022-09-04T01:58:36.804Z,991.70
2022-09-04T01:59:36.807Z,991.70
2022-09-04T02:00:37.956Z,991.69
2022-09-04T02:01:36.781Z,991.68
2022-09-04T02:02:36.807Z,991.69
2022-09-04T02:03:36.787Z,991.69
2022-09-04T02:04:36.747Z,991.67
2022-09-04T02:05:36.735Z,991.67
2022-09-04T02:06:36.753Z,991.67
2022-09-04T02:07:36.708Z,991.67
2022-09-04T02:08:36.708Z,991.66
2022-09-04T02:09:36.711Z,991.64
2022-09-04T02:10:36.688Z,991.65
2022-09-04T02:11:36.677Z,991.66
2022-09-04T02:12:36.678Z,991.66
2022-09-04T02:13:36.646Z,991.67
2022-09-04T02:14:36.635Z,991.67
2022-09-04T02:15:36.616Z,991.76
2022-09-04T02:16:36.790Z,991.73
2022-09-04T02:17:36.606Z,991.74
2022-09-04T02:18:36.596Z,991.72
2022-09-04T02:19:36.624Z,991.74
2022-09-04T02:20:36.634Z,991.68
2022-09-04T02:21:36.562Z,991.70
2022-09-04T02:22:36.562Z,991.67
2022-09-04T02:23:36.550Z,991.66
2022-09-04T02:24:36.540Z,991.69
2022-09-04T02:25:36.529Z,991.65
2022-09-04T02:26:36.536Z,991.67
2022-09-04T02:27:36.511Z,991.70
2022-09-04T02:28:36.489Z,991.70
2022-09-04T02:29:36.505Z,991.71
2022-09-04T02:30:36.489Z,991.72
2022-09-04T02:31:36.546Z,991.70
2022-09-04T02:32:36.475Z,991.71
2022-09-04T02:33:36.448Z,991.73
2022-09-04T02:34:36.427Z,991.71
2022-09-04T02:35:36.418Z,991.72
2022-09-04T02:36:36.449Z,991.66
2022-09-04T02:37:36.399Z,991.68
2022-09-04T02:38:36.400Z,991.67
2022-09-04T02:39:36.414Z,991.68
2022-09-04T02:40:36.379Z,991.70
2022-09-04T02:41:36.361Z,991.74
2022-09-04T02:42:36.440Z,991.71
2022-09-04T02:43:36.350Z,991.72
2022-09-04T02:44:36.328Z,991.69
2022-09-04T02:45:36.320Z,991.67
2022-09-04T02:46:40.011Z,991.69
2022-09-04T02:47:37.537Z,991.71
2022-09-04T02:48:36.298Z,991.65
2022-09-04T02:49:36.277Z,991.68
2022-09-04T02:50:36.278Z,991.67
2022-09-04T02:51:36.253Z,991.71
2022-09-04T02:52:36.271Z,991.68
2022-09-04T02:53:36.239Z,991.68
2022-09-04T02:54:36.259Z,991.66
2022-09-04T02:55:36.220Z,991.70
2022-09-04T02:56:36.231Z,991.70
2022-09-04T02:57:36.191Z,991.76
2022-09-04T02:58:36.184Z,991.76
2022-09-04T02:59:36.181Z,991.77
2022-09-04T03:00:36.261Z,991.80
2022-09-04T03:01:36.234Z,991.78
2022-09-04T03:02:36.139Z,991.76
2022-09-04T03:03:36.129Z,991.83
2022-09-04T03:04:36.128Z,991.82
2022-09-04T03:05:36.119Z,991.83
2022-09-04T03:06:36.119Z,991.80
2022-09-04T03:07:36.110Z,991.86
2022-09-04T03:08:36.323Z,991.87
2022-09-04T03:09:36.081Z,991.91
2022-09-04T03:10:36.073Z,991.91
2022-09-04T03:11:36.054Z,991.91
2022-09-04T03:12:36.040Z,991.97
2022-09-04T03:13:36.039Z,991.94
2022-09-04T03:14:36.039Z,991.89
2022-09-04T03:15:36.020Z,991.91
2022-09-04T03:16:36.056Z,991.88
2022-09-04T03:17:35.996Z,991.89
2022-09-04T03:18:35.994Z,991.90
2022-09-04T03:19:35.983Z,991.90
2022-09-04T03:20:35.992Z,991.91
2022-09-04T03:21:35.991Z,991.94
2022-09-04T03:22:35.943Z,991.92
2022-09-04T03:23:35.948Z,991.89
2022-09-04T03:24:35.922Z,991.91
2022-09-04T03:25:35.930Z,991.90
2022-09-04T03:26:35.891Z,991.89
2022-09-04T03:27:35.880Z,991.94
2022-09-04T03:28:35.881Z,991.90
2022-09-04T03:29:35.871Z,991.92
2022-09-04T03:30:35.880Z,991.91
2022-09-04T03:31:35.946Z,991.93
2022-09-04T03:32:35.844Z,991.93
2022-09-04T03:33:35.836Z,991.91
2022-09-04T03:34:35.866Z,991.94
2022-09-04T03:35:35.813Z,991.88
2022-09-04T03:36:35.864Z,991.88
2022-09-04T03:37:35.794Z,991.91
2022-09-04T03:38:35.793Z,991.91
2022-09-04T03:39:35.855Z,991.93
2022-09-04T03:40:35.751Z,991.98
2022-09-04T03:41:35.741Z,991.98
2022-09-04T03:42:35.782Z,991.99
2022-09-04T03:43:35.731Z,991.99
2022-09-04T03:44:35.721Z,991.99
2022-09-04T03:45:35.700Z,992.02
2022-09-04T03:46:35.754Z,991.96
2022-09-04T03:47:35.692Z,991.93
2022-09-04T03:48:35.714Z,991.97
2022-09-04T03:49:35.665Z,991.98
2022-09-04T03:50:35.664Z,991.97
2022-09-04T03:51:35.685Z,991.98
2022-09-04T03:52:35.674Z,992.01
2022-09-04T03:53:35.632Z,991.98
2022-09-04T03:54:35.654Z,992.01
2022-09-04T03:55:35.625Z,992.04
2022-09-04T03:56:35.632Z,992.02
2022-09-04T03:57:35.573Z,992.02
2022-09-04T03:58:35.594Z,992.02
2022-09-04T03:59:37.898Z,992.05
2022-09-04T04:00:35.589Z,992.03
2022-09-04T04:01:35.545Z,992.02
2022-09-04T04:02:35.588Z,992.03
2022-09-04T04:03:35.533Z,992.02
2022-09-04T04:04:35.536Z,992.08
2022-09-04T04:05:35.506Z,992.08
2022-09-04T04:06:35.495Z,992.16
2022-09-04T04:07:35.485Z,992.18
2022-09-04T04:08:35.477Z,992.20
2022-09-04T04:09:35.465Z,992.14
2022-09-04T04:10:35.491Z,992.19
2022-09-04T04:11:38.070Z,992.18
2022-09-04T04:12:36.433Z,992.26
2022-09-04T04:13:35.414Z,992.21
2022-09-04T04:14:35.403Z,992.23
2022-09-04T04:15:35.404Z,992.27
2022-09-04T04:16:35.456Z,992.23
2022-09-04T04:17:35.394Z,992.16
2022-09-04T04:18:35.335Z,992.24
2022-09-04T04:19:35.308Z,992.20
2022-09-04T04:21:32.221Z,992.17
2022-09-04T04:22:32.201Z,992.22
2022-09-04T04:23:32.201Z,992.22
2022-09-04T04:24:32.171Z,992.18
2022-09-04T04:25:32.160Z,992.19
2022-09-04T04:26:32.179Z,992.17
2022-09-04T04:27:32.130Z,992.22
2022-09-04T04:28:32.089Z,992.23
2022-09-04T04:29:32.079Z,992.27
2022-09-04T04:30:32.120Z,992.32
2022-09-04T04:31:32.189Z,992.28
2022-09-04T04:32:32.129Z,992.27
2022-09-04T04:33:32.081Z,992.34
2022-09-04T04:34:32.072Z,992.34
2022-09-04T04:35:32.062Z,992.38
2022-09-04T04:36:32.022Z,992.40
2022-09-04T04:37:32.662Z,992.36
2022-09-04T04:38:32.013Z,992.36
2022-09-04T04:39:31.993Z,992.33
2022-09-04T04:40:31.953Z,992.35
2022-09-04T04:41:31.972Z,992.44
2022-09-04T04:42:31.930Z,992.41
2022-09-04T04:43:31.969Z,992.41
2022-09-04T04:44:31.931Z,992.52
2022-09-04T04:45:31.900Z,992.43
2022-09-04T04:46:31.966Z,992.44
2022-09-04T04:47:31.881Z,992.48
2022-09-04T04:48:31.969Z,992.47
2022-09-04T04:49:31.862Z,992.48
2022-09-04T04:50:31.880Z,992.49
2022-09-04T04:51:31.871Z,992.55
2022-09-04T04:52:31.863Z,992.54
2022-09-04T04:53:31.813Z,992.55
2022-09-04T04:54:31.821Z,992.59
2022-09-04T04:55:31.820Z,992.60
2022-09-04T04:56:31.812Z,992.63
2022-09-04T04:57:31.811Z,992.66
2022-09-04T04:58:31.775Z,992.64
2022-09-04T04:59:31.813Z,992.67
2022-09-04T05:00:31.761Z,992.67
2022-09-04T05:01:31.922Z,992.72
2022-09-04T05:02:31.757Z,992.68
2022-09-04T05:03:31.734Z,992.73
2022-09-04T05:04:31.748Z,992.75
2022-09-04T05:05:31.713Z,992.76
2022-09-04T05:06:31.701Z,992.77
2022-09-04T05:07:32.654Z,992.80
2022-09-04T05:08:31.681Z,992.77
2022-09-04T05:09:31.692Z,992.78
2022-09-04T05:10:31.643Z,992.79
2022-09-04T05:11:31.631Z,992.82
2022-09-04T05:12:31.632Z,992.81
2022-09-04T05:13:31.622Z,992.81
2022-09-04T05:14:31.613Z,992.84
2022-09-04T05:15:31.645Z,992.82
2022-09-04T05:16:31.619Z,992.83
2022-09-04T05:17:31.616Z,992.86
2022-09-04T05:18:31.575Z,992.88
2022-09-04T05:19:31.566Z,992.91
2022-09-04T05:20:31.554Z,992.94
2022-09-04T05:21:31.542Z,992.91
2022-09-04T05:22:34.292Z,992.92
2022-09-04T05:23:31.544Z,992.90
2022-09-04T05:24:31.539Z,992.90
2022-09-04T05:25:31.542Z,992.88
2022-09-04T05:26:31.526Z,992.94
2022-09-04T05:27:31.463Z,992.96
2022-09-04T05:28:31.481Z,992.97
2022-09-04T05:29:32.630Z,992.95
2022-09-04T05:30:31.464Z,992.96
2022-09-04T05:31:31.525Z,993.01
2022-09-04T05:32:31.476Z,992.95
2022-09-04T05:33:31.424Z,992.99
2022-09-04T05:34:31.414Z,993.02
2022-09-04T05:35:35.285Z,993.03
2022-09-04T05:36:31.425Z,993.07
2022-09-04T05:37:31.374Z,993.10
2022-09-04T05:38:31.383Z,993.10
2022-09-04T05:39:31.403Z,993.06
2022-09-04T05:40:31.343Z,993.10
2022-09-04T05:41:31.335Z,993.12
2022-09-04T05:42:31.334Z,993.10
2022-09-04T05:43:31.313Z,993.11
2022-09-04T05:44:31.303Z,993.17
2022-09-04T05:45:31.306Z,993.17
2022-09-04T05:46:31.335Z,993.18
2022-09-04T05:47:31.305Z,993.19
2022-09-04T05:48:31.293Z,993.21
2022-09-04T05:49:31.248Z,993.23
2022-09-04T05:50:31.278Z,993.25
2022-09-04T05:51:31.236Z,993.30
2022-09-04T05:52:31.236Z,993.23
2022-09-04T05:53:31.215Z,993.27
2022-09-04T05:54:31.194Z,993.25
2022-09-04T05:55:31.182Z,993.25
2022-09-04T05:56:31.194Z,993.28
2022-09-04T05:57:31.174Z,993.30
2022-09-04T05:58:31.184Z,993.33
2022-09-04T05:59:31.155Z,993.35
2022-09-04T06:00:31.135Z,993.34
2022-09-04T06:01:31.180Z,993.40
2022-09-04T06:02:31.140Z,993.34
2022-09-04T06:03:31.118Z,993.40
2022-09-04T06:04:31.137Z,993.40
2022-09-04T06:05:31.096Z,993.41
2022-09-04T06:06:31.136Z,993.43
2022-09-04T06:07:31.076Z,993.44
2022-09-04T06:08:31.167Z,993.49
2022-09-04T06:09:31.094Z,993.51
2022-09-04T06:10:31.215Z,993.45
2022-09-04T06:11:31.025Z,993.49
2022-09-04T06:12:31.016Z,993.56
2022-09-04T06:13:31.007Z,993.60
2022-09-04T06:14:31.015Z,993.64
2022-09-04T06:15:30.996Z,993.62
2022-09-04T06:16:31.040Z,993.64
2022-09-04T06:17:30.987Z,993.62
2022-09-04T06:18:30.958Z,993.67
2022-09-04T06:19:30.975Z,993.63
2022-09-04T06:20:31.017Z,993.62
2022-09-04T06:21:30.937Z,993.61
2022-09-04T06:22:30.937Z,993.65
2022-09-04T06:23:30.937Z,993.74
2022-09-04T06:24:30.906Z,993.77
2022-09-04T06:25:30.886Z,993.71
2022-09-04T06:26:31.857Z,993.77
2022-09-04T06:27:30.866Z,993.79
2022-09-04T06:28:30.846Z,993.72
2022-09-04T06:29:30.871Z,993.72
2022-09-04T06:30:30.827Z,993.80
2022-09-04T06:31:30.940Z,993.74
2022-09-04T06:32:30.848Z,993.78
2022-09-04T06:33:30.849Z,993.73
2022-09-04T06:34:30.828Z,993.77
2022-09-04T06:35:30.809Z,993.73
2022-09-04T06:36:30.779Z,993.74
2022-09-04T06:37:30.799Z,993.71
2022-09-04T06:38:30.787Z,993.73
2022-09-04T06:39:30.838Z,993.77
2022-09-04T06:40:30.794Z,993.80
2022-09-04T06:41:30.717Z,993.84
2022-09-04T06:42:30.750Z,993.84
2022-09-04T06:43:30.707Z,993.86
2022-09-04T06:44:30.697Z,993.92
2022-09-04T06:45:30.687Z,993.87
2022-09-04T06:46:30.776Z,993.86
2022-09-04T06:47:30.697Z,993.88
2022-09-04T06:48:30.667Z,993.89
2022-09-04T06:49:30.649Z,993.89
2022-09-04T06:50:30.639Z,993.91
2022-09-04T06:51:32.341Z,993.90
2022-09-04T06:52:30.668Z,993.91
2022-09-04T06:53:30.609Z,993.89
2022-09-04T06:54:32.232Z,993.93
2022-09-04T06:55:30.589Z,993.96
2022-09-04T06:56:30.580Z,993.94
2022-09-04T06:57:30.586Z,993.93
2022-09-04T06:58:30.558Z,993.93
2022-09-04T06:59:30.548Z,993.89
2022-09-04T07:00:30.517Z,993.87
2022-09-04T07:01:30.655Z,993.86
2022-09-04T07:02:30.619Z,993.83
2022-09-04T07:03:30.518Z,993.86
2022-09-04T07:04:30.520Z,993.86
2022-09-04T07:05:30.500Z,993.86
2022-09-04T07:06:30.477Z,993.89
2022-09-04T07:07:30.459Z,993.91
2022-09-04T07:08:30.460Z,993.90
2022-09-04T07:09:30.429Z,993.88
2022-09-04T07:10:30.479Z,993.88
2022-09-04T07:11:30.429Z,993.89
2022-09-04T07:12:30.419Z,993.91
2022-09-04T07:13:30.401Z,993.95
2022-09-04T07:14:30.411Z,993.97
2022-09-04T07:15:30.463Z,994.01
2022-09-04T07:16:30.390Z,994.12
2022-09-04T07:17:30.371Z,994.13
2022-09-04T07:18:30.362Z,994.09
2022-09-04T07:19:30.362Z,994.15
2022-09-04T07:20:30.321Z,994.12
2022-09-04T07:21:30.344Z,994.13
2022-09-04T07:22:30.309Z,994.12
2022-09-04T07:23:30.319Z,994.09
2022-09-04T07:24:30.299Z,994.17
2022-09-04T07:25:30.259Z,994.15
2022-09-04T07:26:34.930Z,994.18
2022-09-04T07:27:30.260Z,994.15
2022-09-04T07:28:30.291Z,994.14
2022-09-04T07:29:30.291Z,994.16
2022-09-04T07:30:30.219Z,994.18
2022-09-04T07:31:30.296Z,994.20
2022-09-04T07:32:30.202Z,994.14
2022-09-04T07:33:30.202Z,994.20
2022-09-04T07:34:30.182Z,994.19
2022-09-04T07:35:30.230Z,994.17
2022-09-04T07:36:32.011Z,994.19
2022-09-04T07:37:30.142Z,994.20
2022-09-04T07:38:30.130Z,994.21
2022-09-04T07:39:30.215Z,994.19
2022-09-04T07:40:30.839Z,994.20
2022-09-04T07:41:30.132Z,994.20
2022-09-04T07:42:31.003Z,994.20
2022-09-04T07:43:30.091Z,994.23
2022-09-04T07:44:30.071Z,994.25
2022-09-04T07:45:30.106Z,994.25
2022-09-04T07:46:30.152Z,994.24
2022-09-04T07:47:30.072Z,994.33
2022-09-04T07:48:30.032Z,994.30
2022-09-04T07:49:30.082Z,994.33
2022-09-04T07:50:30.042Z,994.34
2022-09-04T07:51:30.012Z,994.33
2022-09-04T07:52:30.043Z,994.35
2022-09-04T07:53:30.012Z,994.33
2022-09-04T07:54:29.981Z,994.37
2022-09-04T07:55:29.961Z,994.40
2022-09-04T07:56:29.951Z,994.40
2022-09-04T07:57:29.941Z,994.47
2022-09-04T07:58:29.941Z,994.51
2022-09-04T07:59:30.011Z,994.50
2022-09-04T08:00:29.910Z,994.50
2022-09-04T08:01:29.990Z,994.49
2022-09-04T08:02:29.885Z,994.52
2022-09-04T08:03:29.906Z,994.52
2022-09-04T08:04:29.944Z,994.50
2022-09-04T08:05:29.883Z,994.50
2022-09-04T08:06:29.842Z,994.53
2022-09-04T08:07:29.842Z,994.56
2022-09-04T08:08:29.844Z,994.57
2022-09-04T08:09:29.824Z,994.55
2022-09-04T08:10:29.825Z,994.54
2022-09-04T08:11:29.817Z,994.59
2022-09-04T08:12:29.806Z,994.61
2022-09-04T08:13:29.784Z,994.60
2022-09-04T08:14:29.796Z,994.61
2022-09-04T08:15:29.792Z,994.60
2022-09-04T08:16:29.758Z,994.64
2022-09-04T08:17:29.742Z,994.60
2022-09-04T08:18:29.776Z,994.61
2022-09-04T08:19:29.744Z,994.61
2022-09-04T08:20:29.703Z,994.61
2022-09-04T08:21:29.694Z,994.67
2022-09-04T08:22:29.693Z,994.65
2022-09-04T08:23:29.683Z,994.64
2022-09-04T08:24:29.673Z,994.65
2022-09-04T08:25:29.665Z,994.63
2022-09-04T08:26:29.664Z,994.59
2022-09-04T08:27:29.674Z,994.67
2022-09-04T08:28:29.624Z,994.60
2022-09-04T08:29:29.656Z,994.64
2022-09-04T08:30:29.609Z,994.56
2022-09-04T08:31:29.662Z,994.54
2022-09-04T08:32:37.887Z,994.59
2022-09-04T08:33:30.573Z,994.60
2022-09-04T08:34:29.571Z,994.62
2022-09-04T08:35:29.563Z,994.58
2022-09-04T08:36:29.543Z,994.63
2022-09-04T08:37:29.534Z,994.56
2022-09-04T08:38:29.523Z,994.57
2022-09-04T08:39:29.561Z,994.60
2022-09-04T08:40:29.503Z,994.55
2022-09-04T08:41:29.519Z,994.58
2022-09-04T08:42:30.478Z,994.56
2022-09-04T08:43:29.476Z,994.56
2022-09-04T08:44:29.465Z,994.54
2022-09-04T08:45:29.465Z,994.53
2022-09-04T08:46:29.499Z,994.60
2022-09-04T08:47:29.435Z,994.57
2022-09-04T08:48:29.423Z,994.60
2022-09-04T08:49:29.404Z,994.61
2022-09-04T08:50:29.402Z,994.64
2022-09-04T08:51:29.374Z,994.63
2022-09-04T08:52:29.404Z,994.66
2022-09-04T08:53:29.354Z,994.70
2022-09-04T08:54:29.364Z,994.67
2022-09-04T08:55:29.364Z,994.71
2022-09-04T08:56:29.340Z,994.70
2022-09-04T08:57:29.331Z,994.69
2022-09-04T08:58:29.315Z,994.70
2022-09-04T08:59:29.304Z,994.67
2022-09-04T09:00:29.307Z,994.69
2022-09-04T09:01:29.311Z,994.70
2022-09-04T09:02:29.295Z,994.63
2022-09-04T09:03:29.256Z,994.59
2022-09-04T09:04:29.244Z,994.58
2022-09-04T09:05:29.241Z,994.61
2022-09-04T09:06:29.245Z,994.57
2022-09-04T09:07:29.207Z,994.56
2022-09-04T09:08:31.689Z,994.55
2022-09-04T09:09:29.201Z,994.55
2022-09-04T09:10:29.189Z,994.49
2022-09-04T09:11:29.177Z,994.50
2022-09-04T09:12:40.298Z,994.48
2022-09-04T09:13:30.145Z,994.46
2022-09-04T09:14:29.145Z,994.51
2022-09-04T09:15:29.202Z,994.49
2022-09-04T09:16:29.146Z,994.45
2022-09-04T09:17:34.822Z,994.46
2022-09-04T09:18:30.100Z,994.49
2022-09-04T09:19:29.085Z,994.55
2022-09-04T09:20:29.138Z,994.47
2022-09-04T09:22:25.814Z,994.47
2022-09-04T09:23:25.808Z,994.44
2022-09-04T09:24:25.796Z,994.46
2022-09-04T09:25:25.764Z,994.50
2022-09-04T09:26:25.745Z,994.48
2022-09-04T09:27:25.744Z,994.46
2022-09-04T09:28:25.746Z,994.50
2022-09-04T09:29:25.727Z,994.45
2022-09-04T09:30:25.775Z,994.50
2022-09-04T09:31:25.707Z,994.48
2022-09-04T09:32:25.693Z,994.48
2022-09-04T09:33:25.892Z,994.49
2022-09-04T09:34:26.623Z,994.49
2022-09-04T09:35:25.655Z,994.48
2022-09-04T09:36:25.668Z,994.46
2022-09-04T09:37:25.658Z,994.47
2022-09-04T09:38:25.637Z,994.46
2022-09-04T09:39:25.706Z,994.50
2022-09-04T09:40:25.607Z,994.45
2022-09-04T09:41:25.607Z,994.44
2022-09-04T09:42:25.602Z,994.40
2022-09-04T09:43:25.665Z,994.40
2022-09-04T09:44:25.596Z,994.41
2022-09-04T09:45:25.608Z,994.39
2022-09-04T09:46:25.572Z,994.36
2022-09-04T09:47:25.536Z,994.36
2022-09-04T09:48:25.526Z,994.36
2022-09-04T09:49:25.516Z,994.34
2022-09-04T09:50:25.514Z,994.32
2022-09-04T09:51:25.506Z,994.35
2022-09-04T09:52:25.488Z,994.31
2022-09-04T09:53:25.636Z,994.33
2022-09-04T09:54:25.488Z,994.33
2022-09-04T09:55:25.477Z,994.32
2022-09-04T09:56:25.448Z,994.28
2022-09-04T09:57:27.316Z,994.29
2022-09-04T09:58:26.438Z,994.24
2022-09-04T09:59:26.069Z,994.24
2022-09-04T10:00:25.446Z,994.23
2022-09-04T10:01:25.482Z,994.24
2022-09-04T10:02:25.452Z,994.24
2022-09-04T10:03:25.440Z,994.26
2022-09-04T10:04:25.357Z,994.23
2022-09-04T10:05:25.358Z,994.17
2022-09-04T10:06:25.367Z,994.17
2022-09-04T10:07:25.368Z,994.19
2022-09-04T10:08:35.600Z,994.21
2022-09-04T10:09:26.319Z,994.22
2022-09-04T10:10:25.320Z,994.21
2022-09-04T10:11:25.290Z,994.24
2022-09-04T10:12:25.317Z,994.19
2022-09-04T10:13:25.409Z,994.21
2022-09-04T10:14:25.400Z,994.20
2022-09-04T10:15:25.288Z,994.20
2022-09-04T10:16:25.289Z,994.19
2022-09-04T10:17:25.240Z,994.17
2022-09-04T10:18:25.206Z,994.18
2022-09-04T10:19:25.208Z,994.14
2022-09-04T10:20:25.191Z,994.16
2022-09-04T10:21:25.218Z,994.18
2022-09-04T10:22:25.238Z,994.11
2022-09-04T10:23:25.341Z,994.10
2022-09-04T10:24:25.190Z,994.11
2022-09-04T10:25:26.136Z,994.10
2022-09-04T10:26:25.180Z,994.10
2022-09-04T10:27:26.130Z,994.08
2022-09-04T10:28:25.110Z,994.11
2022-09-04T10:29:25.131Z,994.06
2022-09-04T10:30:25.141Z,994.09
2022-09-04T10:31:25.091Z,994.05
2022-09-04T10:32:25.099Z,994.04
2022-09-04T10:33:25.168Z,994.12
2022-09-04T10:34:25.037Z,994.09
2022-09-04T10:35:25.041Z,994.04
2022-09-04T10:36:25.031Z,994.07
2022-09-04T10:37:25.082Z,994.06
2022-09-04T10:38:25.001Z,994.08
2022-09-04T10:39:25.056Z,994.00
2022-09-04T10:40:24.969Z,994.02
2022-09-04T10:41:24.979Z,994.03
2022-09-04T10:42:24.980Z,994.04
2022-09-04T10:43:25.042Z,993.95
2022-09-04T10:44:24.951Z,993.99
2022-09-04T10:45:24.938Z,994.06
2022-09-04T10:46:24.951Z,993.98
2022-09-04T10:47:24.969Z,994.00
2022-09-04T10:48:28.397Z,993.96
2022-09-04T10:49:24.925Z,993.95
2022-09-04T10:50:24.885Z,993.92
2022-09-04T10:51:24.882Z,993.91
2022-09-04T10:52:24.892Z,993.92
2022-09-04T10:53:24.975Z,993.87
2022-09-04T10:54:24.853Z,993.92
2022-09-04T10:55:25.505Z,993.91
2022-09-04T10:56:24.810Z,993.85
2022-09-04T10:57:24.810Z,993.84
2022-09-04T10:58:24.841Z,993.84
2022-09-04T10:59:24.821Z,993.82
2022-09-04T11:00:24.781Z,993.81
2022-09-04T11:01:24.815Z,993.82
2022-09-04T11:02:24.804Z,993.83
2022-09-04T11:03:24.863Z,993.81
2022-09-04T11:04:24.752Z,993.80
2022-09-04T11:05:24.936Z,993.79
2022-09-04T11:06:24.713Z,993.79
2022-09-04T11:07:28.580Z,993.77
2022-09-04T11:08:24.695Z,993.83
2022-09-04T11:09:24.693Z,993.80
2022-09-04T11:10:24.665Z,993.76
2022-09-04T11:11:24.713Z,993.75
2022-09-04T11:12:24.701Z,993.77
2022-09-04T11:13:24.733Z,993.74
2022-09-04T11:14:24.622Z,993.72
2022-09-04T11:15:24.641Z,993.72
2022-09-04T11:16:24.650Z,993.75
2022-09-04T11:17:24.634Z,993.78
2022-09-04T11:18:24.595Z,993.73
2022-09-04T11:19:24.571Z,993.77
2022-09-04T11:20:24.574Z,993.77
2022-09-04T11:21:24.575Z,993.79
2022-09-04T11:22:24.584Z,993.73
2022-09-04T11:23:24.661Z,993.71
2022-09-04T11:24:24.532Z,993.71
2022-09-04T11:25:24.524Z,993.70
2022-09-04T11:26:24.524Z,993.68
2022-09-04T11:27:24.532Z,993.63
2022-09-04T11:28:24.472Z,993.63
2022-09-04T11:29:24.510Z,993.65
2022-09-04T11:30:24.452Z,993.67
2022-09-04T11:31:24.500Z,993.62
2022-09-04T11:32:24.444Z,993.61
2022-09-04T11:33:24.537Z,993.60
2022-09-04T11:34:24.412Z,993.61
2022-09-04T11:35:24.414Z,993.62
2022-09-04T11:36:24.415Z,993.62
2022-09-04T11:37:24.405Z,993.64
2022-09-04T11:38:24.394Z,993.63
2022-09-04T11:39:24.422Z,993.62
2022-09-04T11:40:24.353Z,993.63
2022-09-04T11:41:24.353Z,993.60
2022-09-04T11:42:24.405Z,993.61
2022-09-04T11:43:24.428Z,993.62
2022-09-04T11:44:24.365Z,993.62
2022-09-04T11:45:24.376Z,993.63
2022-09-04T11:46:24.305Z,993.59
2022-09-04T11:47:24.296Z,993.62
2022-09-04T11:48:24.325Z,993.66
2022-09-04T11:49:24.266Z,993.62
2022-09-04T11:50:24.295Z,993.60
2022-09-04T11:51:24.276Z,993.57
2022-09-04T11:52:24.224Z,993.57
2022-09-04T11:53:24.350Z,993.58
2022-09-04T11:54:24.224Z,993.52
2022-09-04T11:55:24.204Z,993.52
2022-09-04T11:56:24.212Z,993.51
2022-09-04T11:57:24.183Z,993.53
2022-09-04T11:58:24.175Z,993.51
2022-09-04T11:59:24.194Z,993.50
2022-09-04T12:00:24.157Z,993.49
2022-09-04T12:01:24.146Z,993.50
2022-09-04T12:02:24.197Z,993.47
2022-09-04T12:03:24.269Z,993.43
2022-09-04T12:04:24.186Z,993.45
2022-09-04T12:05:24.126Z,993.47
2022-09-04T12:06:24.097Z,993.47
2022-09-04T12:07:24.136Z,993.49
2022-09-04T12:08:24.065Z,993.53
2022-09-04T12:09:24.073Z,993.55
2022-09-04T12:10:24.045Z,993.51
2022-09-04T12:11:24.027Z,993.52
2022-09-04T12:12:24.019Z,993.52
2022-09-04T12:13:24.038Z,993.56
2022-09-04T12:14:24.028Z,993.57
2022-09-04T12:15:23.991Z,993.52
2022-09-04T12:16:24.020Z,993.55
2022-09-04T12:17:23.977Z,993.53
2022-09-04T12:18:23.968Z,993.55
2022-09-04T12:19:23.979Z,993.55
2022-09-04T12:20:24.027Z,993.53
2022-09-04T12:21:23.940Z,993.52
2022-09-04T12:22:23.919Z,993.54
2022-09-04T12:23:23.950Z,993.51
2022-09-04T12:24:23.906Z,993.50
2022-09-04T12:25:23.894Z,993.56
2022-09-04T12:26:23.876Z,993.53
2022-09-04T12:27:23.867Z,993.49
2022-09-04T12:28:23.848Z,993.49
2022-09-04T12:29:23.871Z,993.48
2022-09-04T12:30:23.842Z,993.48